sensor_id;sensor_type;location;lat;lon;timestamp;temperature;humidity
38866;DHT22;62686;48.984;8.394;2023-02-28T00:01:36;-1.30;99.90
38866;DHT22;62686;48.984;8.394;2023-02-28T00:04:04;-1.30;99.90
38866;DHT22;62686;48.984;8.394;2023-02-28T00:06:32;-1.30;99.90
38866;DHT22;62686;48.984;8.394;2023-02-28T00:09:01;-1.20;99.90
38866;DHT22;62686;48.984;8.394;2023-02-28T00:11:29;-1.30;99.90
38866;DHT22;62686;48.984;8.394;2023-02-28T00:13:59;-1.40;99.90
38866;DHT22;62686;48.984;8.394;2023-02-28T00:16:27;-1.30;99.90
38866;DHT22;62686;48.984;8.394;2023-02-28T00:18:55;-1.30;99.90
38866;DHT22;62686;48.984;8.394;2023-02-28T00:21:23;-1.30;99.90
38866;DHT22;62686;48.984;8.394;2023-02-28T00:23:52;-1.50;99.90
38866;DHT22;62686;48.984;8.394;2023-02-28T00:26:20;-1.50;99.90
38866;DHT22;62686;48.984;8.394;2023-02-28T00:28:48;-1.60;99.90
38866;DHT22;62686;48.984;8.394;2023-02-28T00:31:18;-1.80;99.90
38866;DHT22;62686;48.984;8.394;2023-02-28T00:33:46;-1.70;99.90
38866;DHT22;62686;48.984;8.394;2023-02-28T00:36:14;-1.60;99.90
38866;DHT22;62686;48.984;8.394;2023-02-28T00:38:42;-1.60;99.90
38866;DHT22;62686;48.984;8.394;2023-02-28T00:41:11;-1.50;99.90
38866;DHT22;62686;48.984;8.394;2023-02-28T00:43:39;-1.60;99.90
38866;DHT22;62686;48.984;8.394;2023-02-28T00:46:08;-1.60;99.90
38866;DHT22;62686;48.984;8.394;2023-02-28T00:48:37;-1.40;99.90
38866;DHT22;62686;48.984;8.394;2023-02-28T00:51:06;-1.50;99.90
38866;DHT22;62686;48.984;8.394;2023-02-28T00:53:34;-1.40;99.90
38866;DHT22;62686;48.984;8.394;2023-02-28T00:56:02;-1.50;99.90
38866;DHT22;62686;48.984;8.394;2023-02-28T00:58:31;-1.50;99.90
38866;DHT22;62686;48.984;8.394;2023-02-28T01:00:59;-1.60;99.90
38866;DHT22;62686;48.984;8.394;2023-02-28T01:03:27;-1.70;99.90
38866;DHT22;62686;48.984;8.394;2023-02-28T01:05:57;-1.60;99.90
38866;DHT22;62686;48.984;8.394;2023-02-28T01:08:26;-1.60;99.90
38866;DHT22;62686;48.984;8.394;2023-02-28T01:10:54;-1.70;99.90
38866;DHT22;62686;48.984;8.394;2023-02-28T01:13:23;-1.80;99.90
38866;DHT22;62686;48.984;8.394;2023-02-28T01:15:55;-1.60;99.90
38866;DHT22;62686;48.984;8.394;2023-02-28T01:18:24;-1.70;99.90
38866;DHT22;62686;48.984;8.394;2023-02-28T01:20:52;-1.60;99.90
38866;DHT22;62686;48.984;8.394;2023-02-28T01:23:23;-1.50;99.90
38866;DHT22;62686;48.984;8.394;2023-02-28T01:25:52;-1.60;99.90
38866;DHT22;62686;48.984;8.394;2023-02-28T01:28:21;-1.50;99.90
38866;DHT22;62686;48.984;8.394;2023-02-28T01:30:49;-1.40;99.90
38866;DHT22;62686;48.984;8.394;2023-02-28T01:33:18;-1.40;99.90
38866;DHT22;62686;48.984;8.394;2023-02-28T01:35:46;-1.40;99.90
38866;DHT22;62686;48.984;8.394;2023-02-28T01:38:14;-1.50;99.90
38866;DHT22;62686;48.984;8.394;2023-02-28T01:40:51;-1.50;99.90
38866;DHT22;62686;48.984;8.394;2023-02-28T01:43:22;-1.50;99.90
38866;DHT22;62686;48.984;8.394;2023-02-28T01:45:51;-1.50;99.90
38866;DHT22;62686;48.984;8.394;2023-02-28T01:48:22;-1.60;99.90
38866;DHT22;62686;48.984;8.394;2023-02-28T01:50:55;-1.60;99.90
38866;DHT22;62686;48.984;8.394;2023-02-28T01:53:31;-1.60;99.90
38866;DHT22;62686;48.984;8.394;2023-02-28T01:56:04;-1.60;99.90
38866;DHT22;62686;48.984;8.394;2023-02-28T01:58:34;-1.60;99.90
38866;DHT22;62686;48.984;8.394;2023-02-28T02:01:04;-1.70;99.90
38866;DHT22;62686;48.984;8.394;2023-02-28T02:03:32;-1.90;99.90
38866;DHT22;62686;48.984;8.394;2023-02-28T02:06:03;-1.90;99.90
38866;DHT22;62686;48.984;8.394;2023-02-28T02:08:32;-1.90;99.90
38866;DHT22;62686;48.984;8.394;2023-02-28T02:11:02;-1.90;99.90
38866;DHT22;62686;48.984;8.394;2023-02-28T02:14:01;-1.90;99.90
38866;DHT22;62686;48.984;8.394;2023-02-28T02:16:41;-1.90;99.90
38866;DHT22;62686;48.984;8.394;2023-02-28T02:19:29;-1.80;99.90
38866;DHT22;62686;48.984;8.394;2023-02-28T02:22:20;-1.90;99.90
38866;DHT22;62686;48.984;8.394;2023-02-28T02:25:11;-1.80;99.90
38866;DHT22;62686;48.984;8.394;2023-02-28T02:27:59;-1.90;99.90
38866;DHT22;62686;48.984;8.394;2023-02-28T02:30:53;-1.90;99.90
38866;DHT22;62686;48.984;8.394;2023-02-28T02:36:51;-2.00;99.90
38866;DHT22;62686;48.984;8.394;2023-02-28T02:39:27;-2.10;99.90
38866;DHT22;62686;48.984;8.394;2023-02-28T02:42:00;-2.10;99.90
38866;DHT22;62686;48.984;8.394;2023-02-28T02:44:33;-2.10;99.90
38866;DHT22;62686;48.984;8.394;2023-02-28T02:47:05;-2.20;99.90
38866;DHT22;62686;48.984;8.394;2023-02-28T02:49:36;-2.20;99.90
38866;DHT22;62686;48.984;8.394;2023-02-28T02:52:11;-2.30;99.90
38866;DHT22;62686;48.984;8.394;2023-02-28T02:54:43;-2.30;99.90
38866;DHT22;62686;48.984;8.394;2023-02-28T02:57:15;-2.30;99.90
38866;DHT22;62686;48.984;8.394;2023-02-28T02:59:45;-2.40;99.90
38866;DHT22;62686;48.984;8.394;2023-02-28T03:02:17;-2.40;99.90
38866;DHT22;62686;48.984;8.394;2023-02-28T03:04:50;-2.40;99.90
38866;DHT22;62686;48.984;8.394;2023-02-28T03:07:20;-2.20;99.90
38866;DHT22;62686;48.984;8.394;2023-02-28T03:09:53;-2.10;99.90
38866;DHT22;62686;48.984;8.394;2023-02-28T03:12:24;-2.00;99.90
38866;DHT22;62686;48.984;8.394;2023-02-28T03:15:03;-2.00;99.90
38866;DHT22;62686;48.984;8.394;2023-02-28T03:17:46;-1.90;99.90
38866;DHT22;62686;48.984;8.394;2023-02-28T03:20:27;-1.70;99.90
38866;DHT22;62686;48.984;8.394;2023-02-28T03:23:03;-1.60;99.90
38866;DHT22;62686;48.984;8.394;2023-02-28T03:25:44;-1.50;99.90
38866;DHT22;62686;48.984;8.394;2023-02-28T03:28:19;-1.50;99.90
38866;DHT22;62686;48.984;8.394;2023-02-28T03:30:54;-1.50;99.90
38866;DHT22;62686;48.984;8.394;2023-02-28T03:33:29;-1.40;99.90
38866;DHT22;62686;48.984;8.394;2023-02-28T03:36:01;-1.30;99.90
38866;DHT22;62686;48.984;8.394;2023-02-28T03:38:38;-1.20;99.90
38866;DHT22;62686;48.984;8.394;2023-02-28T03:41:12;-1.10;99.90
38866;DHT22;62686;48.984;8.394;2023-02-28T03:43:46;-1.10;99.90
38866;DHT22;62686;48.984;8.394;2023-02-28T03:46:19;-1.00;99.90
38866;DHT22;62686;48.984;8.394;2023-02-28T03:48:52;-1.00;99.90
38866;DHT22;62686;48.984;8.394;2023-02-28T03:51:23;-1.00;99.90
38866;DHT22;62686;48.984;8.394;2023-02-28T03:53:56;-1.00;99.90
38866;DHT22;62686;48.984;8.394;2023-02-28T03:56:29;-1.00;99.90
38866;DHT22;62686;48.984;8.394;2023-02-28T03:59:02;-1.00;99.90
38866;DHT22;62686;48.984;8.394;2023-02-28T04:01:36;-0.90;99.90
38866;DHT22;62686;48.984;8.394;2023-02-28T04:04:08;-0.90;99.90
38866;DHT22;62686;48.984;8.394;2023-02-28T04:06:37;-0.90;99.90
38866;DHT22;62686;48.984;8.394;2023-02-28T04:09:09;-0.90;99.90
38866;DHT22;62686;48.984;8.394;2023-02-28T04:11:38;-0.80;99.90
38866;DHT22;62686;48.984;8.394;2023-02-28T04:14:08;-0.80;99.90
38866;DHT22;62686;48.984;8.394;2023-02-28T04:16:38;-0.80;99.90
38866;DHT22;62686;48.984;8.394;2023-02-28T04:19:07;-0.80;99.90
38866;DHT22;62686;48.984;8.394;2023-02-28T04:21:37;-0.80;99.90
38866;DHT22;62686;48.984;8.394;2023-02-28T04:24:10;-0.80;99.90
38866;DHT22;62686;48.984;8.394;2023-02-28T04:26:43;-0.70;99.90
38866;DHT22;62686;48.984;8.394;2023-02-28T04:29:13;-0.60;99.90
38866;DHT22;62686;48.984;8.394;2023-02-28T04:31:41;-0.60;99.90
38866;DHT22;62686;48.984;8.394;2023-02-28T04:34:10;-0.60;99.90
38866;DHT22;62686;48.984;8.394;2023-02-28T04:36:38;-0.50;99.90
38866;DHT22;62686;48.984;8.394;2023-02-28T04:39:07;-0.50;99.90
38866;DHT22;62686;48.984;8.394;2023-02-28T04:41:36;-0.50;99.90
38866;DHT22;62686;48.984;8.394;2023-02-28T04:44:04;-0.40;99.90
38866;DHT22;62686;48.984;8.394;2023-02-28T04:46:32;-0.50;99.90
38866;DHT22;62686;48.984;8.394;2023-02-28T04:49:01;-0.60;99.90
38866;DHT22;62686;48.984;8.394;2023-02-28T04:51:29;-0.70;99.90
38866;DHT22;62686;48.984;8.394;2023-02-28T04:53:58;-0.80;99.90
38866;DHT22;62686;48.984;8.394;2023-02-28T04:56:27;-0.80;99.90
38866;DHT22;62686;48.984;8.394;2023-02-28T04:58:55;-0.80;99.90
38866;DHT22;62686;48.984;8.394;2023-02-28T05:01:25;-0.90;99.90
38866;DHT22;62686;48.984;8.394;2023-02-28T05:03:56;-0.90;99.90
38866;DHT22;62686;48.984;8.394;2023-02-28T05:06:26;-0.90;99.90
38866;DHT22;62686;48.984;8.394;2023-02-28T05:08:54;-0.90;99.90
38866;DHT22;62686;48.984;8.394;2023-02-28T05:11:25;-0.90;99.90
38866;DHT22;62686;48.984;8.394;2023-02-28T05:13:55;-0.90;99.90
38866;DHT22;62686;48.984;8.394;2023-02-28T05:16:24;-0.90;99.90
38866;DHT22;62686;48.984;8.394;2023-02-28T05:18:52;-0.90;99.90
38866;DHT22;62686;48.984;8.394;2023-02-28T05:21:25;-0.90;99.90
38866;DHT22;62686;48.984;8.394;2023-02-28T05:23:54;-1.00;99.90
38866;DHT22;62686;48.984;8.394;2023-02-28T05:26:23;-1.00;99.90
38866;DHT22;62686;48.984;8.394;2023-02-28T05:28:52;-1.00;99.90
38866;DHT22;62686;48.984;8.394;2023-02-28T05:31:22;-1.10;99.90
38866;DHT22;62686;48.984;8.394;2023-02-28T05:33:50;-1.00;99.90
38866;DHT22;62686;48.984;8.394;2023-02-28T05:36:19;-1.10;99.90
38866;DHT22;62686;48.984;8.394;2023-02-28T05:38:48;-1.10;99.90
38866;DHT22;62686;48.984;8.394;2023-02-28T05:41:17;-1.10;99.90
38866;DHT22;62686;48.984;8.394;2023-02-28T05:43:46;-1.00;99.90
38866;DHT22;62686;48.984;8.394;2023-02-28T05:46:15;-1.00;99.90
38866;DHT22;62686;48.984;8.394;2023-02-28T05:48:46;-1.00;99.90
38866;DHT22;62686;48.984;8.394;2023-02-28T05:51:15;-1.00;99.90
38866;DHT22;62686;48.984;8.394;2023-02-28T05:53:44;-1.00;99.90
38866;DHT22;62686;48.984;8.394;2023-02-28T05:56:13;-1.00;99.90
38866;DHT22;62686;48.984;8.394;2023-02-28T05:58:41;-1.10;99.90
38866;DHT22;62686;48.984;8.394;2023-02-28T06:01:36;-1.00;99.90
38866;DHT22;62686;48.984;8.394;2023-02-28T06:04:08;-0.90;99.90
38866;DHT22;62686;48.984;8.394;2023-02-28T06:09:23;-0.90;99.90
38866;DHT22;62686;48.984;8.394;2023-02-28T06:11:51;-0.70;99.90
38866;DHT22;62686;48.984;8.394;2023-02-28T06:14:21;-0.70;99.90
38866;DHT22;62686;48.984;8.394;2023-02-28T06:16:49;-0.60;99.90
38866;DHT22;62686;48.984;8.394;2023-02-28T06:19:19;-0.60;99.90
38866;DHT22;62686;48.984;8.394;2023-02-28T06:21:49;-0.60;99.90
38866;DHT22;62686;48.984;8.394;2023-02-28T06:24:19;-0.50;99.90
38866;DHT22;62686;48.984;8.394;2023-02-28T06:26:49;-0.40;99.90
38866;DHT22;62686;48.984;8.394;2023-02-28T06:29:17;-0.40;99.90
38866;DHT22;62686;48.984;8.394;2023-02-28T06:31:46;-0.40;99.90
38866;DHT22;62686;48.984;8.394;2023-02-28T06:34:16;-0.30;99.90
38866;DHT22;62686;48.984;8.394;2023-02-28T06:36:45;-0.30;99.90
38866;DHT22;62686;48.984;8.394;2023-02-28T06:39:14;-0.30;99.90
38866;DHT22;62686;48.984;8.394;2023-02-28T06:41:43;-0.20;99.90
38866;DHT22;62686;48.984;8.394;2023-02-28T06:44:21;-0.20;99.90
38866;DHT22;62686;48.984;8.394;2023-02-28T06:46:49;-0.20;99.90
38866;DHT22;62686;48.984;8.394;2023-02-28T06:49:18;-0.20;99.90
38866;DHT22;62686;48.984;8.394;2023-02-28T06:51:48;-0.10;99.90
38866;DHT22;62686;48.984;8.394;2023-02-28T06:54:16;-0.10;99.90
38866;DHT22;62686;48.984;8.394;2023-02-28T06:56:45;0.00;99.90
38866;DHT22;62686;48.984;8.394;2023-02-28T06:59:13;0.00;99.90
38866;DHT22;62686;48.984;8.394;2023-02-28T07:04:12;0.10;99.90
38866;DHT22;62686;48.984;8.394;2023-02-28T07:06:41;0.20;99.90
38866;DHT22;62686;48.984;8.394;2023-02-28T07:09:10;0.30;99.90
38866;DHT22;62686;48.984;8.394;2023-02-28T07:11:39;0.30;99.90
38866;DHT22;62686;48.984;8.394;2023-02-28T07:14:07;0.30;99.90
38866;DHT22;62686;48.984;8.394;2023-02-28T07:16:36;0.30;99.90
38866;DHT22;62686;48.984;8.394;2023-02-28T07:19:04;0.30;99.90
38866;DHT22;62686;48.984;8.394;2023-02-28T07:21:32;0.40;99.90
38866;DHT22;62686;48.984;8.394;2023-02-28T07:24:04;0.40;99.90
38866;DHT22;62686;48.984;8.394;2023-02-28T07:29:32;0.40;99.90
38866;DHT22;62686;48.984;8.394;2023-02-28T07:32:01;0.50;99.90
38866;DHT22;62686;48.984;8.394;2023-02-28T07:34:29;0.50;99.90
38866;DHT22;62686;48.984;8.394;2023-02-28T07:36:57;0.70;99.90
38866;DHT22;62686;48.984;8.394;2023-02-28T07:39:26;0.70;99.90
38866;DHT22;62686;48.984;8.394;2023-02-28T07:41:57;0.70;99.90
38866;DHT22;62686;48.984;8.394;2023-02-28T07:44:26;0.70;99.90
38866;DHT22;62686;48.984;8.394;2023-02-28T07:46:56;0.70;99.90
38866;DHT22;62686;48.984;8.394;2023-02-28T07:49:45;0.80;99.90
38866;DHT22;62686;48.984;8.394;2023-02-28T07:52:13;0.80;99.90
38866;DHT22;62686;48.984;8.394;2023-02-28T07:57:23;0.80;99.90
38866;DHT22;62686;48.984;8.394;2023-02-28T08:32:20;1.90;99.90
38866;DHT22;62686;48.984;8.394;2023-02-28T08:40:31;1.70;99.90
38866;DHT22;62686;48.984;8.394;2023-02-28T08:42:59;1.70;99.90
38866;DHT22;62686;48.984;8.394;2023-02-28T08:45:27;1.80;99.90
38866;DHT22;62686;48.984;8.394;2023-02-28T08:47:57;2.00;99.90
38866;DHT22;62686;48.984;8.394;2023-02-28T08:50:25;2.20;99.90
38866;DHT22;62686;48.984;8.394;2023-02-28T08:52:54;2.10;99.90
38866;DHT22;62686;48.984;8.394;2023-02-28T08:55:22;2.00;99.90
38866;DHT22;62686;48.984;8.394;2023-02-28T08:57:50;2.10;99.90
38866;DHT22;62686;48.984;8.394;2023-02-28T09:03:02;2.20;99.90
38866;DHT22;62686;48.984;8.394;2023-02-28T09:05:31;2.00;99.90
38866;DHT22;62686;48.984;8.394;2023-02-28T09:07:59;2.00;99.90
38866;DHT22;62686;48.984;8.394;2023-02-28T09:10:27;2.00;99.90
38866;DHT22;62686;48.984;8.394;2023-02-28T09:12:56;2.30;99.90
38866;DHT22;62686;48.984;8.394;2023-02-28T09:15:24;2.60;99.90
38866;DHT22;62686;48.984;8.394;2023-02-28T09:20:50;2.80;99.90
38866;DHT22;62686;48.984;8.394;2023-02-28T09:26:07;2.50;99.90
38866;DHT22;62686;48.984;8.394;2023-02-28T09:28:37;2.60;99.90
38866;DHT22;62686;48.984;8.394;2023-02-28T09:31:05;2.70;99.90
38866;DHT22;62686;48.984;8.394;2023-02-28T09:33:34;2.80;99.90
38866;DHT22;62686;48.984;8.394;2023-02-28T09:36:04;2.70;99.90
38866;DHT22;62686;48.984;8.394;2023-02-28T09:41:14;2.80;99.90
38866;DHT22;62686;48.984;8.394;2023-02-28T09:43:46;3.10;99.90
38866;DHT22;62686;48.984;8.394;2023-02-28T09:46:25;3.60;99.90
38866;DHT22;62686;48.984;8.394;2023-02-28T09:48:56;4.10;99.90
38866;DHT22;62686;48.984;8.394;2023-02-28T09:51:36;4.00;99.90
38866;DHT22;62686;48.984;8.394;2023-02-28T09:54:05;3.90;99.90
38866;DHT22;62686;48.984;8.394;2023-02-28T09:56:38;3.70;99.90
38866;DHT22;62686;48.984;8.394;2023-02-28T09:59:14;3.30;99.90
38866;DHT22;62686;48.984;8.394;2023-02-28T10:01:50;3.50;99.90
38866;DHT22;62686;48.984;8.394;2023-02-28T10:04:36;3.50;99.90
38866;DHT22;62686;48.984;8.394;2023-02-28T10:07:19;3.70;99.90
38866;DHT22;62686;48.984;8.394;2023-02-28T10:23:25;4.60;99.90
38866;DHT22;62686;48.984;8.394;2023-02-28T10:25:59;4.80;99.90
38866;DHT22;62686;48.984;8.394;2023-02-28T10:28:29;4.70;99.90
38866;DHT22;62686;48.984;8.394;2023-02-28T10:30:58;4.30;99.90
38866;DHT22;62686;48.984;8.394;2023-02-28T10:33:30;4.30;99.90
38866;DHT22;62686;48.984;8.394;2023-02-28T10:35:59;4.20;99.90
38866;DHT22;62686;48.984;8.394;2023-02-28T10:38:34;4.20;99.90
38866;DHT22;62686;48.984;8.394;2023-02-28T10:41:07;3.90;99.90
38866;DHT22;62686;48.984;8.394;2023-02-28T10:43:36;3.70;99.90
38866;DHT22;62686;48.984;8.394;2023-02-28T10:49:02;3.40;99.90
38866;DHT22;62686;48.984;8.394;2023-02-28T10:51:36;3.40;99.90
38866;DHT22;62686;48.984;8.394;2023-02-28T10:54:13;3.50;99.90
38866;DHT22;62686;48.984;8.394;2023-02-28T10:56:42;3.70;99.90
38866;DHT22;62686;48.984;8.394;2023-02-28T10:59:27;3.80;99.90
38866;DHT22;62686;48.984;8.394;2023-02-28T11:01:56;4.00;99.90
38866;DHT22;62686;48.984;8.394;2023-02-28T11:04:35;4.20;99.90
38866;DHT22;62686;48.984;8.394;2023-02-28T11:07:17;4.20;99.90
38866;DHT22;62686;48.984;8.394;2023-02-28T11:09:49;4.00;99.90
38866;DHT22;62686;48.984;8.394;2023-02-28T11:12:21;4.10;99.90
38866;DHT22;62686;48.984;8.394;2023-02-28T11:14:51;4.10;99.90
38866;DHT22;62686;48.984;8.394;2023-02-28T11:17:21;4.30;99.90
38866;DHT22;62686;48.984;8.394;2023-02-28T11:19:52;4.20;99.90
38866;DHT22;62686;48.984;8.394;2023-02-28T11:22:23;4.20;99.90
38866;DHT22;62686;48.984;8.394;2023-02-28T11:25:00;4.50;99.90
38866;DHT22;62686;48.984;8.394;2023-02-28T11:27:47;4.40;99.90
38866;DHT22;62686;48.984;8.394;2023-02-28T11:30:34;4.60;99.90
38866;DHT22;62686;48.984;8.394;2023-02-28T11:33:22;4.50;99.90
38866;DHT22;62686;48.984;8.394;2023-02-28T11:35:51;4.60;99.90
38866;DHT22;62686;48.984;8.394;2023-02-28T11:38:20;4.80;99.90
38866;DHT22;62686;48.984;8.394;2023-02-28T11:41:03;4.80;99.90
38866;DHT22;62686;48.984;8.394;2023-02-28T11:43:44;4.90;99.90
38866;DHT22;62686;48.984;8.394;2023-02-28T11:49:04;5.10;99.90
38866;DHT22;62686;48.984;8.394;2023-02-28T11:51:36;5.20;99.90
38866;DHT22;62686;48.984;8.394;2023-02-28T11:54:23;5.40;99.90
38866;DHT22;62686;48.984;8.394;2023-02-28T11:59:52;5.80;99.90
38866;DHT22;62686;48.984;8.394;2023-02-28T12:02:28;5.90;99.90
38866;DHT22;62686;48.984;8.394;2023-02-28T12:05:10;5.80;99.90
38866;DHT22;62686;48.984;8.394;2023-02-28T12:07:48;5.80;99.90
38866;DHT22;62686;48.984;8.394;2023-02-28T12:10:22;6.20;99.90
38866;DHT22;62686;48.984;8.394;2023-02-28T12:13:04;6.40;99.90
38866;DHT22;62686;48.984;8.394;2023-02-28T12:16:01;6.20;99.90
38866;DHT22;62686;48.984;8.394;2023-02-28T12:29:23;6.00;99.90
38866;DHT22;62686;48.984;8.394;2023-02-28T12:31:55;5.70;99.90
38866;DHT22;62686;48.984;8.394;2023-02-28T12:34:30;5.40;99.90
38866;DHT22;62686;48.984;8.394;2023-02-28T12:37:04;5.40;99.90
38866;DHT22;62686;48.984;8.394;2023-02-28T12:39:38;5.60;99.90
38866;DHT22;62686;48.984;8.394;2023-02-28T12:42:21;6.10;99.90
38866;DHT22;62686;48.984;8.394;2023-02-28T12:44:54;7.20;99.90
38866;DHT22;62686;48.984;8.394;2023-02-28T12:47:23;7.50;99.90
38866;DHT22;62686;48.984;8.394;2023-02-28T12:49:55;8.30;99.90
38866;DHT22;62686;48.984;8.394;2023-02-28T12:52:31;8.80;99.90
38866;DHT22;62686;48.984;8.394;2023-02-28T12:55:07;8.90;99.90
38866;DHT22;62686;48.984;8.394;2023-02-28T12:57:40;9.70;99.90
38866;DHT22;62686;48.984;8.394;2023-02-28T13:38:22;7.20;99.90
38866;DHT22;62686;48.984;8.394;2023-02-28T13:44:03;6.70;99.90
38866;DHT22;62686;48.984;8.394;2023-02-28T13:46:32;6.50;99.90
38866;DHT22;62686;48.984;8.394;2023-02-28T13:49:18;6.40;99.90
38866;DHT22;62686;48.984;8.394;2023-02-28T13:51:47;6.50;99.90
38866;DHT22;62686;48.984;8.394;2023-02-28T13:54:31;6.40;99.90
38866;DHT22;62686;48.984;8.394;2023-02-28T14:02:58;6.80;99.90
38866;DHT22;62686;48.984;8.394;2023-02-28T14:05:28;8.40;99.90
38866;DHT22;62686;48.984;8.394;2023-02-28T14:11:03;8.00;99.90
38866;DHT22;62686;48.984;8.394;2023-02-28T14:13:41;7.50;99.90
38866;DHT22;62686;48.984;8.394;2023-02-28T14:16:15;7.40;99.90
38866;DHT22;62686;48.984;8.394;2023-02-28T14:18:50;7.10;99.90
38866;DHT22;62686;48.984;8.394;2023-02-28T14:21:23;7.00;99.90
38866;DHT22;62686;48.984;8.394;2023-02-28T14:24:23;6.90;99.90
38866;DHT22;62686;48.984;8.394;2023-02-28T14:27:08;6.70;99.90
38866;DHT22;62686;48.984;8.394;2023-02-28T14:29:56;7.40;99.90
38866;DHT22;62686;48.984;8.394;2023-02-28T14:32:30;7.70;99.90
38866;DHT22;62686;48.984;8.394;2023-02-28T14:35:09;7.80;99.90
38866;DHT22;62686;48.984;8.394;2023-02-28T14:37:41;7.80;99.90
38866;DHT22;62686;48.984;8.394;2023-02-28T14:40:16;8.10;99.90
38866;DHT22;62686;48.984;8.394;2023-02-28T14:42:55;8.00;99.90
38866;DHT22;62686;48.984;8.394;2023-02-28T14:45:24;7.80;99.90
38866;DHT22;62686;48.984;8.394;2023-02-28T14:47:52;7.50;99.90
38866;DHT22;62686;48.984;8.394;2023-02-28T14:50:23;7.10;99.90
38866;DHT22;62686;48.984;8.394;2023-02-28T14:52:53;6.60;99.90
38866;DHT22;62686;48.984;8.394;2023-02-28T14:55:25;6.40;99.90
38866;DHT22;62686;48.984;8.394;2023-02-28T14:57:56;6.20;99.90
38866;DHT22;62686;48.984;8.394;2023-02-28T15:00:26;6.10;99.90
38866;DHT22;62686;48.984;8.394;2023-02-28T15:02:56;6.10;99.90
38866;DHT22;62686;48.984;8.394;2023-02-28T15:05:28;6.10;99.90
38866;DHT22;62686;48.984;8.394;2023-02-28T15:08:06;6.00;99.90
38866;DHT22;62686;48.984;8.394;2023-02-28T15:10:35;6.00;99.90
38866;DHT22;62686;48.984;8.394;2023-02-28T15:13:06;5.80;99.90
38866;DHT22;62686;48.984;8.394;2023-02-28T15:15:45;5.80;99.90
38866;DHT22;62686;48.984;8.394;2023-02-28T15:18:37;5.60;99.90
38866;DHT22;62686;48.984;8.394;2023-02-28T15:21:12;5.60;99.90
38866;DHT22;62686;48.984;8.394;2023-02-28T15:23:46;5.50;99.90
38866;DHT22;62686;48.984;8.394;2023-02-28T15:26:16;5.50;99.90
38866;DHT22;62686;48.984;8.394;2023-02-28T15:28:49;5.50;99.90
38866;DHT22;62686;48.984;8.394;2023-02-28T15:31:21;5.40;99.90
38866;DHT22;62686;48.984;8.394;2023-02-28T15:33:56;5.40;99.90
38866;DHT22;62686;48.984;8.394;2023-02-28T15:36:28;5.40;99.90
38866;DHT22;62686;48.984;8.394;2023-02-28T15:38:58;5.40;99.90
38866;DHT22;62686;48.984;8.394;2023-02-28T15:41:40;5.40;99.90
38866;DHT22;62686;48.984;8.394;2023-02-28T15:44:17;5.50;99.90
38866;DHT22;62686;48.984;8.394;2023-02-28T15:46:55;5.40;99.90
38866;DHT22;62686;48.984;8.394;2023-02-28T15:49:25;5.40;99.90
38866;DHT22;62686;48.984;8.394;2023-02-28T17:43:47;2.80;99.90
38866;DHT22;62686;48.984;8.394;2023-02-28T17:46:20;2.70;99.90
38866;DHT22;62686;48.984;8.394;2023-02-28T17:48:49;2.70;99.90
38866;DHT22;62686;48.984;8.394;2023-02-28T17:51:22;2.70;99.90
38866;DHT22;62686;48.984;8.394;2023-02-28T17:53:50;2.80;99.90
38866;DHT22;62686;48.984;8.394;2023-02-28T17:56:20;2.90;99.90
38866;DHT22;62686;48.984;8.394;2023-02-28T17:58:52;2.80;99.90
38866;DHT22;62686;48.984;8.394;2023-02-28T18:01:21;2.70;99.90
38866;DHT22;62686;48.984;8.394;2023-02-28T18:03:51;2.60;99.90
38866;DHT22;62686;48.984;8.394;2023-02-28T18:06:21;2.50;99.90
38866;DHT22;62686;48.984;8.394;2023-02-28T18:08:50;2.50;99.90
38866;DHT22;62686;48.984;8.394;2023-02-28T18:11:19;2.60;99.90
38866;DHT22;62686;48.984;8.394;2023-02-28T18:13:53;2.60;99.90
38866;DHT22;62686;48.984;8.394;2023-02-28T18:16:22;2.60;99.90
38866;DHT22;62686;48.984;8.394;2023-02-28T18:18:50;2.50;99.90
38866;DHT22;62686;48.984;8.394;2023-02-28T18:21:19;2.40;99.90
38866;DHT22;62686;48.984;8.394;2023-02-28T18:23:47;2.40;99.90
38866;DHT22;62686;48.984;8.394;2023-02-28T18:26:17;2.30;99.90
38866;DHT22;62686;48.984;8.394;2023-02-28T18:28:46;2.30;99.90
38866;DHT22;62686;48.984;8.394;2023-02-28T18:31:17;2.30;99.90
38866;DHT22;62686;48.984;8.394;2023-02-28T18:33:48;2.20;99.90
38866;DHT22;62686;48.984;8.394;2023-02-28T18:36:20;2.20;99.90
38866;DHT22;62686;48.984;8.394;2023-02-28T18:38:49;2.10;99.90
38866;DHT22;62686;48.984;8.394;2023-02-28T18:41:19;1.90;99.90
38866;DHT22;62686;48.984;8.394;2023-02-28T18:43:48;1.90;99.90
38866;DHT22;62686;48.984;8.394;2023-02-28T18:46:20;1.80;99.90
38866;DHT22;62686;48.984;8.394;2023-02-28T18:48:48;1.80;99.90
38866;DHT22;62686;48.984;8.394;2023-02-28T18:51:19;1.80;99.90
38866;DHT22;62686;48.984;8.394;2023-02-28T18:53:48;1.90;99.90
38866;DHT22;62686;48.984;8.394;2023-02-28T18:56:17;1.80;99.90
38866;DHT22;62686;48.984;8.394;2023-02-28T18:58:46;1.60;99.90
38866;DHT22;62686;48.984;8.394;2023-02-28T19:01:17;1.50;99.90
38866;DHT22;62686;48.984;8.394;2023-02-28T19:03:49;1.50;99.90
38866;DHT22;62686;48.984;8.394;2023-02-28T19:06:18;1.40;99.90
38866;DHT22;62686;48.984;8.394;2023-02-28T19:08:46;1.40;99.90
38866;DHT22;62686;48.984;8.394;2023-02-28T19:11:17;1.30;99.90
38866;DHT22;62686;48.984;8.394;2023-02-28T19:13:46;1.30;99.90
38866;DHT22;62686;48.984;8.394;2023-02-28T19:16:16;1.50;99.90
38866;DHT22;62686;48.984;8.394;2023-02-28T19:18:45;1.40;99.90
38866;DHT22;62686;48.984;8.394;2023-02-28T19:21:17;1.20;99.90
38866;DHT22;62686;48.984;8.394;2023-02-28T19:23:46;1.10;99.90
38866;DHT22;62686;48.984;8.394;2023-02-28T19:26:17;0.90;99.90
38866;DHT22;62686;48.984;8.394;2023-02-28T19:28:46;0.90;99.90
38866;DHT22;62686;48.984;8.394;2023-02-28T19:31:17;1.00;99.90
38866;DHT22;62686;48.984;8.394;2023-02-28T19:33:46;1.10;99.90
38866;DHT22;62686;48.984;8.394;2023-02-28T19:36:15;1.10;99.90
38866;DHT22;62686;48.984;8.394;2023-02-28T19:38:44;1.30;99.90
38866;DHT22;62686;48.984;8.394;2023-02-28T19:41:14;1.40;99.90
38866;DHT22;62686;48.984;8.394;2023-02-28T19:43:42;1.40;99.90
38866;DHT22;62686;48.984;8.394;2023-02-28T19:46:11;1.20;99.90
38866;DHT22;62686;48.984;8.394;2023-02-28T19:48:42;1.20;99.90
38866;DHT22;62686;48.984;8.394;2023-02-28T19:51:14;1.10;99.90
38866;DHT22;62686;48.984;8.394;2023-02-28T19:53:45;0.90;99.90
38866;DHT22;62686;48.984;8.394;2023-02-28T19:56:14;0.80;99.90
38866;DHT22;62686;48.984;8.394;2023-02-28T20:01:24;0.70;99.90
38866;DHT22;62686;48.984;8.394;2023-02-28T20:03:52;0.60;99.90
38866;DHT22;62686;48.984;8.394;2023-02-28T20:06:20;0.40;99.90
38866;DHT22;62686;48.984;8.394;2023-02-28T20:08:53;0.50;99.90
38866;DHT22;62686;48.984;8.394;2023-02-28T20:11:21;0.50;99.90
38866;DHT22;62686;48.984;8.394;2023-02-28T20:13:51;0.50;99.90
38866;DHT22;62686;48.984;8.394;2023-02-28T20:16:20;0.50;99.90
38866;DHT22;62686;48.984;8.394;2023-02-28T20:18:50;0.30;99.90
38866;DHT22;62686;48.984;8.394;2023-02-28T20:21:18;0.10;99.90
38866;DHT22;62686;48.984;8.394;2023-02-28T20:23:47;0.10;99.90
38866;DHT22;62686;48.984;8.394;2023-02-28T20:26:16;0.10;99.90
38866;DHT22;62686;48.984;8.394;2023-02-28T20:28:46;0.10;99.90
38866;DHT22;62686;48.984;8.394;2023-02-28T20:31:21;0.10;99.90